Terminal Aerodrome Forecast
Issued by NWS

Home | Current Version | Previous Version | Text Only | Print | Product List | Glossary On
Versions: 1 2 3 4 5 6 7 8 9 10 11 12 13 14 15 16 17 18
000
FTUS43 KUNR 070200 AAA
TAFGCC
TAF AMD
KGCC 070200Z 0702/0724 31014KT P6SM BKN015 OVC025
     FM070900 33016KT P6SM BKN040=

USA.gov is the U.S. government's official web portal to all federal, state and local government web resources and services.